Time;durP1;ratioP1;P1;durP2;ratioP2;P2;SDS_P1;SDS_P2;PMS_P1;PMS_P2;Temp;Humidity;BMP_temperature;BMP_pressure;BME280_temperature;BME280_humidity;BME280_pressure;Samples;Min_cycle;Max_cycle;Signal;HPM_P1;HPM_P2
2021/01/09 00:01:21;;;;;;;21.55;12.20;;;;;;;13.51;62.33;98274.50;4894364;29;20036;-78
2021/01/09 00:03:46;;;;;;;16.40;10.35;;;;;;;13.38;62.89;98272.75;4896362;29;20402;-78
2021/01/09 00:06:12;;;;;;;18.83;11.55;;;;;;;13.25;63.39;98271.72;4895438;29;20045;-79
2021/01/09 00:08:38;;;;;;;15.13;10.02;;;;;;;13.14;63.12;98265.84;4894898;29;20033;-79
2021/01/09 00:11:04;;;;;;;19.85;9.85;;;;;;;13.03;63.36;98270.72;4895224;29;20036;-79
2021/01/09 00:13:29;;;;;;;14.57;9.38;;;;;;;12.95;63.79;98274.97;4895508;29;20016;-79
2021/01/09 00:15:54;;;;;;;18.17;10.23;;;;;;;12.89;63.54;98273.53;4895594;29;20147;-78
2021/01/09 00:18:20;;;;;;;17.52;8.50;;;;;;;12.78;63.58;98282.94;4895286;29;20084;-81
2021/01/09 00:20:45;;;;;;;17.80;8.93;;;;;;;12.71;64.06;98285.28;4895348;29;20056;-82
2021/01/09 00:23:11;;;;;;;14.43;9.32;;;;;;;12.62;63.98;98282.53;4895710;29;20044;-81
2021/01/09 00:25:36;;;;;;;13.00;7.45;;;;;;;12.53;63.86;98303.94;4903016;29;20033;-82
2021/01/09 00:28:02;;;;;;;14.32;7.57;;;;;;;12.45;64.06;98304.69;4895321;29;20035;-81
2021/01/09 00:30:28;;;;;;;15.38;7.53;;;;;;;12.36;64.04;98301.19;4910067;29;20124;-78
2021/01/09 00:32:53;;;;;;;12.23;6.63;;;;;;;12.29;64.29;98306.97;4893111;29;20044;-78
2021/01/09 00:35:18;;;;;;;11.27;6.97;;;;;;;12.22;64.32;98320.81;4895046;29;20044;-78
2021/01/09 00:37:44;;;;;;;11.65;7.22;;;;;;;12.15;64.49;98313.16;4895162;29;20024;-79
2021/01/09 00:40:10;;;;;;;11.05;5.90;;;;;;;12.09;64.44;98310.94;4903461;29;20068;-79
2021/01/09 00:42:44;;;;;;;10.00;5.78;;;;;;;12.09;64.08;98302.88;4902830;29;20048;-85
2021/01/09 00:45:10;;;;;;;11.25;5.72;;;;;;;12.05;64.94;98304.56;4894443;29;20048;-82
2021/01/09 00:47:36;;;;;;;11.75;6.22;;;;;;;12.03;64.53;98299.53;4893596;29;20044;-81
2021/01/09 00:50:05;;;;;;;9.07;4.80;;;;;;;12.01;64.54;98301.69;4894632;29;20044;-84
2021/01/09 00:52:31;;;;;;;7.85;5.05;;;;;;;11.98;64.45;98302.31;4893853;29;20059;-85
2021/01/09 00:54:57;;;;;;;8.95;4.75;;;;;;;11.95;64.65;98298.34;4894742;29;20502;-82
2021/01/09 00:57:22;;;;;;;6.22;4.10;;;;;;;11.91;64.55;98302.69;4894776;29;20040;-81
2021/01/09 00:59:50;;;;;;;5.45;3.85;;;;;;;11.90;64.41;98311.84;4894282;29;20494;-83
2021/01/09 01:02:16;;;;;;;5.80;3.50;;;;;;;11.90;64.62;98316.41;4893548;29;20029;-82
2021/01/09 01:04:41;;;;;;;5.35;3.25;;;;;;;11.89;64.49;98326.34;4894802;29;20151;-82
2021/01/09 01:07:06;;;;;;;4.32;3.20;;;;;;;11.88;63.99;98324.75;4894254;29;20035;-79
2021/01/09 01:09:32;;;;;;;4.60;3.45;;;;;;;11.87;64.27;98325.84;4894406;29;20157;-79
2021/01/09 01:11:57;;;;;;;3.22;2.38;;;;;;;11.84;64.02;98321.09;4892452;29;20028;-83
2021/01/09 01:14:23;;;;;;;2.88;2.50;;;;;;;11.82;64.05;98326.75;4901686;29;20068;-82
2021/01/09 01:16:49;;;;;;;4.88;2.70;;;;;;;11.75;64.17;98320.22;4891795;29;20028;-83
2021/01/09 01:19:15;;;;;;;3.83;1.73;;;;;;;11.75;63.92;98306.84;4894414;29;20601;-83
2021/01/09 01:21:40;;;;;;;2.75;1.58;;;;;;;11.74;63.95;98324.00;4877883;29;20111;-85
2021/01/09 01:24:06;;;;;;;4.40;2.05;;;;;;;11.71;64.41;98312.00;4877311;29;20040;-86
2021/01/09 01:26:31;;;;;;;2.50;1.55;;;;;;;11.70;64.08;98321.13;4878535;29;20402;-86
2021/01/09 01:28:59;;;;;;;3.05;1.50;;;;;;;11.67;64.00;98324.41;4878416;29;20032;-81
2021/01/09 01:31:25;;;;;;;1.63;1.10;;;;;;;11.63;64.26;98326.09;4893645;29;20633;-85
2021/01/09 01:33:51;;;;;;;3.92;1.73;;;;;;;11.62;64.10;98328.00;4878396;29;20090;-85
2021/01/09 01:36:16;;;;;;;2.40;1.30;;;;;;;11.56;64.27;98333.75;4877585;29;20032;-85
2021/01/09 01:38:42;;;;;;;1.25;0.90;;;;;;;11.47;64.24;98341.69;4878096;29;20044;-83
2021/01/09 01:41:09;;;;;;;4.85;1.10;;;;;;;11.43;64.74;98340.72;4878140;29;20120;-83
2021/01/09 01:43:36;;;;;;;1.17;1.00;;;;;;;11.38;64.92;98345.06;4878398;29;20589;-84
2021/01/09 01:46:05;;;;;;;1.65;1.27;;;;;;;11.36;65.13;98357.16;4877237;29;20067;-86
2021/01/09 01:48:32;;;;;;;2.15;1.83;;;;;;;11.26;65.92;98357.38;4878172;29;20037;-81
2021/01/09 01:50:58;;;;;;;1.88;1.20;;;;;;;11.18;65.93;98361.50;4877307;29;20105;-82
2021/01/09 01:53:26;;;;;;;2.38;1.15;;;;;;;11.16;66.15;98361.03;4877107;29;20041;-83
2021/01/09 01:55:52;;;;;;;2.05;1.42;;;;;;;11.08;66.24;98356.34;4878263;29;20032;-82
2021/01/09 01:58:17;;;;;;;3.25;1.15;;;;;;;11.03;66.68;98359.91;4878073;29;20036;-81
2021/01/09 02:00:47;;;;;;;1.92;1.33;;;;;;;10.98;66.74;98358.13;4876321;29;20033;-81
2021/01/09 02:03:18;;;;;;;5.18;1.60;;;;;;;10.92;67.16;98361.19;4876816;29;20044;-83
2021/01/09 02:06:02;;;;;;;1.98;1.52;;;;;;;10.80;67.66;98359.78;4878106;29;20037;-84
2021/01/09 02:08:32;;;;;;;3.97;1.27;;;;;;;10.77;67.40;98375.63;4877686;29;20041;-82
2021/01/09 02:11:01;;;;;;;2.35;1.45;;;;;;;10.70;67.81;98382.13;4877940;29;20032;-82
2021/01/09 02:13:37;;;;;;;1.40;1.17;;;;;;;10.65;68.09;98387.56;4877559;29;20037;-80
2021/01/09 02:16:03;;;;;;;1.27;1.17;;;;;;;10.58;67.80;98381.81;4877238;29;20040;-81
2021/01/09 02:18:29;;;;;;;2.17;1.27;;;;;;;10.54;67.46;98396.84;4874189;29;20522;-80
2021/01/09 02:21:04;;;;;;;2.03;1.08;;;;;;;10.47;67.63;98407.91;4896147;29;20064;-79
2021/01/09 02:23:31;;;;;;;1.17;0.95;;;;;;;10.44;67.74;98410.38;4895652;29;20036;-77
2021/01/09 02:25:56;;;;;;;1.77;1.15;;;;;;;10.36;67.52;98417.13;4878908;29;20124;-77
2021/01/09 02:28:22;;;;;;;2.08;1.40;;;;;;;10.26;68.24;98420.75;4912327;29;20122;-78
2021/01/09 02:30:48;;;;;;;2.15;1.38;;;;;;;10.18;68.62;98432.06;4892429;29;20028;-79
2021/01/09 02:33:17;;;;;;;1.77;1.13;;;;;;;10.12;69.29;98430.56;4894732;29;20044;-79
2021/01/09 02:35:43;;;;;;;1.45;1.15;;;;;;;9.98;69.80;98417.13;4895960;29;20525;-79
2021/01/09 02:38:09;;;;;;;1.75;1.00;;;;;;;9.95;70.18;98437.19;4896214;29;20044;-79
2021/01/09 02:40:41;;;;;;;1.70;0.95;;;;;;;9.90;70.73;98445.28;4897692;29;20096;-79
2021/01/09 02:43:13;;;;;;;1.40;0.90;;;;;;;9.80;71.43;98432.03;4892573;29;20033;-79
2021/01/09 02:45:41;;;;;;;1.67;1.10;;;;;;;9.68;71.76;98430.56;4879908;29;20506;-80
2021/01/09 02:48:08;;;;;;;1.52;1.00;;;;;;;9.58;72.03;98444.84;4890385;29;20104;-78
2021/01/09 02:50:34;;;;;;;0.90;0.70;;;;;;;9.44;72.38;98460.72;4881254;29;20055;-79
2021/01/09 02:52:59;;;;;;;2.97;0.80;;;;;;;9.37;72.70;98460.25;4864422;29;20041;-78
2021/01/09 02:55:25;;;;;;;1.10;0.75;;;;;;;9.26;72.37;98474.78;4862061;29;20032;-77
2021/01/09 02:57:50;;;;;;;1.50;0.60;;;;;;;9.17;72.77;98468.44;4863222;29;20051;-77
2021/01/09 03:00:18;;;;;;;0.80;0.65;;;;;;;9.04;73.02;98459.22;4903570;29;20040;-79
2021/01/09 03:02:43;;;;;;;1.48;0.70;;;;;;;8.96;73.10;98490.75;4895492;29;20036;-77
2021/01/09 03:05:09;;;;;;;1.05;0.68;;;;;;;8.82;74.18;98468.47;4898910;29;20107;-76
2021/01/09 03:07:34;;;;;;;1.02;0.70;;;;;;;8.73;75.07;98468.25;4881957;29;20190;-77
2021/01/09 03:10:00;;;;;;;1.65;0.98;;;;;;;8.64;75.60;98480.56;4879981;29;20058;-78
2021/01/09 03:12:25;;;;;;;0.98;0.55;;;;;;;8.57;76.27;98486.22;4880736;29;20029;-76
2021/01/09 03:14:52;;;;;;;1.00;1.00;;;;;;;8.53;75.71;98485.16;4898608;29;20036;-77
2021/01/09 03:17:17;;;;;;;1.05;0.88;;;;;;;8.49;76.21;98502.78;4894083;29;20033;-77
2021/01/09 03:19:43;;;;;;;0.95;0.60;;;;;;;8.45;76.05;98497.19;4867056;29;20390;-77
2021/01/09 03:22:08;;;;;;;1.30;0.60;;;;;;;8.46;75.84;98501.47;4879897;29;20033;-77
2021/01/09 03:24:34;;;;;;;0.82;0.50;;;;;;;8.44;75.35;98503.59;4863073;29;20047;-79
2021/01/09 03:26:59;;;;;;;0.77;0.60;;;;;;;8.45;74.77;98512.38;4863284;29;20044;-79
2021/01/09 03:29:24;;;;;;;0.60;0.60;;;;;;;8.45;74.53;98509.72;4863006;29;20419;-78
2021/01/09 03:31:50;;;;;;;1.35;0.70;;;;;;;8.42;74.03;98507.59;4867196;29;20025;-78
2021/01/09 03:34:15;;;;;;;0.75;0.50;;;;;;;8.38;73.81;98509.22;4878027;29;20129;-79
2021/01/09 03:36:40;;;;;;;0.60;0.60;;;;;;;8.32;74.31;98505.78;4870872;29;20041;-78
2021/01/09 03:39:06;;;;;;;1.48;0.75;;;;;;;8.31;74.26;98504.19;4863109;29;20402;-78
2021/01/09 03:41:32;;;;;;;0.40;0.40;;;;;;;8.28;73.88;98510.88;4862867;29;20480;-78
2021/01/09 03:43:57;;;;;;;0.43;0.43;;;;;;;8.23;73.99;98510.09;4862874;29;20048;-79
2021/01/09 03:46:23;;;;;;;0.95;0.60;;;;;;;8.18;74.33;98521.56;4862583;29;20040;-80
2021/01/09 03:48:48;;;;;;;7.20;2.92;;;;;;;8.15;74.29;98532.75;4869386;29;20049;-78
2021/01/09 03:51:13;;;;;;;2.17;1.73;;;;;;;8.05;74.95;98541.59;4862809;29;20122;-78
2021/01/09 03:53:39;;;;;;;0.82;0.57;;;;;;;8.00;74.94;98555.72;4862638;29;20551;-77
2021/01/09 03:56:04;;;;;;;1.92;1.52;;;;;;;8.00;75.51;98558.38;4862811;29;20639;-78
2021/01/09 03:58:30;;;;;;;5.43;3.42;;;;;;;7.94;75.84;98562.13;4862441;29;20041;-78
2021/01/09 04:00:55;;;;;;;1.92;1.50;;;;;;;7.92;76.13;98568.78;4862766;29;20064;-78
2021/01/09 04:03:20;;;;;;;1.10;1.00;;;;;;;7.85;76.30;98561.09;4874288;29;20028;-78
2021/01/09 04:05:46;;;;;;;0.98;0.80;;;;;;;7.82;76.59;98565.09;4863199;29;21420;-77
2021/01/09 04:08:11;;;;;;;1.08;0.82;;;;;;;7.78;76.86;98576.53;4862533;29;20056;-79
2021/01/09 04:10:37;;;;;;;0.88;0.80;;;;;;;7.71;77.48;98579.47;4862161;29;20025;-77
2021/01/09 04:13:02;;;;;;;0.80;0.80;;;;;;;7.67;77.44;98579.19;4874687;29;20510;-78
2021/01/09 04:15:28;;;;;;;0.95;0.90;;;;;;;7.67;77.48;98579.19;4877689;29;20454;-78
2021/01/09 04:17:53;;;;;;;0.77;0.77;;;;;;;7.61;77.78;98590.91;4868032;29;20040;-79
2021/01/09 04:20:19;;;;;;;0.88;0.88;;;;;;;7.58;78.33;98585.34;4894690;29;20048;-77
2021/01/09 04:22:44;;;;;;;1.10;0.90;;;;;;;7.51;78.82;98598.91;4886993;29;20032;-77
2021/01/09 04:25:10;;;;;;;1.52;1.27;;;;;;;7.55;78.60;98597.31;4878884;29;20040;-76
2021/01/09 04:27:36;;;;;;;1.95;1.83;;;;;;;7.51;78.67;98602.38;4878920;29;20041;-77
2021/01/09 04:30:03;;;;;;;1.50;1.20;;;;;;;7.53;79.08;98600.25;4882601;29;20025;-77
2021/01/09 04:32:29;;;;;;;1.70;1.40;;;;;;;7.56;78.84;98614.88;4895659;29;20032;-79
2021/01/09 04:34:58;;;;;;;1.80;1.20;;;;;;;7.55;78.84;98613.28;4895958;29;20055;-78
2021/01/09 04:37:23;;;;;;;1.42;1.23;;;;;;;7.56;78.30;98625.53;4896226;29;20047;-77
2021/01/09 04:39:49;;;;;;;1.30;0.98;;;;;;;7.57;78.58;98640.44;4896256;29;20037;-79
2021/01/09 04:42:14;;;;;;;0.98;0.90;;;;;;;7.52;79.17;98630.56;4895975;29;20534;-77
2021/01/09 04:44:40;;;;;;;1.13;1.08;;;;;;;7.53;78.66;98623.38;4896354;29;20088;-78
2021/01/09 04:47:08;;;;;;;0.85;0.82;;;;;;;7.53;79.03;98626.03;4896193;29;20512;-78
2021/01/09 04:49:33;;;;;;;0.98;0.98;;;;;;;7.54;79.37;98640.94;4890876;29;20093;-78
2021/01/09 04:52:02;;;;;;;0.82;0.82;;;;;;;7.51;79.04;98644.16;4888629;29;20033;-77
2021/01/09 04:54:29;;;;;;;1.88;1.35;;;;;;;7.53;79.18;98665.97;4897386;29;20093;-77
2021/01/09 04:56:55;;;;;;;1.65;1.48;;;;;;;7.52;79.64;98661.72;4895956;29;20045;-77
2021/01/09 04:59:23;;;;;;;1.80;1.40;;;;;;;7.52;78.83;98667.84;4884132;29;20068;-77
2021/01/09 05:01:50;;;;;;;1.90;1.55;;;;;;;7.53;78.99;98674.75;4877442;29;20487;-77
2021/01/09 05:04:17;;;;;;;1.17;1.08;;;;;;;7.50;78.65;98669.16;4900291;29;20041;-77
2021/01/09 05:06:44;;;;;;;1.50;0.95;;;;;;;7.46;79.01;98668.09;4895648;29;20127;-77
2021/01/09 05:09:13;;;;;;;2.28;1.05;;;;;;;7.42;79.49;98669.69;4897146;29;20028;-80
2021/01/09 05:11:40;;;;;;;1.75;1.17;;;;;;;7.36;79.62;98688.28;4895474;29;20482;-79
2021/01/09 05:14:06;;;;;;;1.30;0.90;;;;;;;7.36;79.55;98690.13;4887202;29;20029;-77
2021/01/09 05:16:33;;;;;;;1.08;0.70;;;;;;;7.27;79.60;98707.69;4877561;29;20466;-77
2021/01/09 05:18:59;;;;;;;1.10;1.05;;;;;;;7.19;80.04;98698.38;4878053;29;20052;-77
2021/01/09 05:21:27;;;;;;;1.15;1.05;;;;;;;7.14;80.40;98708.97;4896250;29;20486;-78
2021/01/09 05:24:12;;;;;;;0.88;0.88;;;;;;;7.03;80.97;98713.47;4899027;29;20115;-80
2021/01/09 05:26:39;;;;;;;1.55;1.30;;;;;;;6.95;80.70;98716.63;4876493;29;20534;-78
2021/01/09 05:29:06;;;;;;;1.27;1.00;;;;;;;6.80;77.04;98727.97;4882641;29;20545;-78
2021/01/09 05:31:35;;;;;;;2.80;1.45;;;;;;;6.68;77.60;98717.59;4879165;29;20096;-80
2021/01/09 05:34:13;;;;;;;2.35;1.40;;;;;;;6.54;76.93;98733.16;4877404;29;20029;-80
2021/01/09 05:36:40;;;;;;;5.10;1.53;;;;;;;6.47;77.43;98744.03;4902050;29;20040;-79
2021/01/09 05:39:08;;;;;;;2.08;1.08;;;;;;;6.36;77.70;98742.34;4895723;29;20593;-80
2021/01/09 05:41:34;;;;;;;4.70;1.45;;;;;;;6.30;77.99;98757.47;4895315;29;20041;-78
2021/01/09 05:44:08;;;;;;;1.77;1.35;;;;;;;6.25;78.52;98762.75;4895396;29;20455;-79
2021/01/09 05:46:44;;;;;;;1.48;0.88;;;;;;;6.25;78.56;98774.16;4896337;29;20039;-79
2021/01/09 05:49:10;;;;;;;2.20;1.15;;;;;;;6.20;78.61;98786.56;4882183;29;20186;-79
2021/01/09 05:51:39;;;;;;;2.30;1.08;;;;;;;6.19;79.30;98791.09;4895710;29;20521;-78
2021/01/09 05:54:05;;;;;;;2.72;1.35;;;;;;;6.17;79.69;98798.50;4897012;29;20115;-77
2021/01/09 05:56:38;;;;;;;2.22;1.20;;;;;;;6.17;79.77;98792.41;4895593;29;20060;-77
2021/01/09 05:59:03;;;;;;;2.67;1.63;;;;;;;6.19;80.04;98800.91;4893695;29;20032;-77
2021/01/09 06:01:30;;;;;;;1.33;0.80;;;;;;;6.16;78.85;98806.72;4882563;29;20037;-78
2021/01/09 06:04:05;;;;;;;1.40;0.90;;;;;;;6.09;79.25;98809.59;4890388;29;20033;-78
2021/01/09 06:06:41;;;;;;;1.67;1.13;;;;;;;6.08;79.65;98819.41;4895378;29;20056;-77
2021/01/09 06:09:10;;;;;;;2.55;0.85;;;;;;;6.08;79.92;98832.69;4895077;29;20104;-76
2021/01/09 06:11:35;;;;;;;1.15;0.85;;;;;;;6.11;80.12;98842.00;4895922;29;20029;-76
2021/01/09 06:14:02;;;;;;;4.55;1.10;;;;;;;6.09;80.08;98844.09;4896383;29;20037;-77
2021/01/09 06:16:30;;;;;;;4.05;1.55;;;;;;;6.07;80.30;98840.91;4896356;29;20029;-77
2021/01/09 06:18:57;;;;;;;2.35;1.48;;;;;;;6.07;80.22;98831.09;4895684;29;20493;-76
2021/01/09 06:21:23;;;;;;;7.35;2.78;;;;;;;6.08;80.63;98831.91;4896028;29;20123;-76
2021/01/09 06:23:48;;;;;;;5.50;3.17;;;;;;;6.07;81.02;98839.03;4895724;29;20036;-76
2021/01/09 06:26:15;;;;;;;5.68;2.78;;;;;;;5.99;80.66;98839.50;4895890;29;20032;-76
2021/01/09 06:28:45;;;;;;;3.35;1.60;;;;;;;5.86;80.78;98835.38;4897204;29;20052;-77
2021/01/09 06:31:18;;;;;;;2.28;1.70;;;;;;;5.83;81.21;98851.78;4896536;29;20513;-78
2021/01/09 06:33:47;;;;;;;3.90;2.47;;;;;;;5.78;81.46;98865.00;4896502;29;20032;-78
2021/01/09 06:36:13;;;;;;;;;;;;;;;5.73;81.50;98870.25;4896890;29;20029;-76
2021/01/09 06:38:40;;;;;;;2.80;2.22;;;;;;;5.66;82.46;98877.59;4896992;29;20367;-77
2021/01/09 06:41:10;;;;;;;2.83;1.60;;;;;;;5.59;82.00;98891.84;4896439;29;20402;-78
2021/01/09 06:43:37;;;;;;;1.75;1.52;;;;;;;5.55;82.59;98903.19;4895917;29;20033;-78
2021/01/09 06:46:06;;;;;;;2.03;1.50;;;;;;;5.48;82.08;98899.91;4896454;29;20490;-77
2021/01/09 06:48:35;;;;;;;4.30;2.78;;;;;;;5.42;82.47;98909.66;4900285;29;20040;-78
2021/01/09 06:51:00;;;;;;;5.80;2.70;;;;;;;5.37;82.71;98906.94;4900513;29;20459;-78
2021/01/09 06:53:25;;;;;;;6.10;3.88;;;;;;;5.32;83.39;98905.00;4900815;29;20033;-78
2021/01/09 06:55:54;;;;;;;7.35;4.90;;;;;;;5.29;83.85;98919.56;4900460;29;20375;-77
2021/01/09 06:58:24;;;;;;;;;;;;;;;5.29;83.87;98934.69;4900316;29;20590;-78
2021/01/09 07:00:49;;;;;;;7.07;3.72;;;;;;;5.22;84.08;98942.00;4899028;29;19911;-74
2021/01/09 07:03:22;;;;;;;5.30;2.97;;;;;;;5.19;84.37;98929.22;4900722;29;20028;-77
2021/01/09 07:05:51;;;;;;;7.28;4.53;;;;;;;5.17;84.60;98952.53;4902819;29;20036;-77
2021/01/09 07:08:22;;;;;;;7.40;5.38;;;;;;;5.13;85.58;98952.22;4901689;29;20024;-79
2021/01/09 07:10:50;;;;;;;5.60;3.58;;;;;;;5.11;84.92;98964.91;4902600;29;20037;-77
2021/01/09 07:13:17;;;;;;;5.53;3.20;;;;;;;5.08;85.26;98957.44;4898690;29;20040;-75
2021/01/09 07:15:43;;;;;;;7.65;5.20;;;;;;;5.04;85.02;98969.56;4895746;29;20029;-77
2021/01/09 07:18:09;;;;;;;8.25;5.10;;;;;;;5.04;84.97;98962.44;4881604;29;20040;-77
2021/01/09 07:20:41;;;;;;;11.85;5.20;;;;;;;5.04;85.68;98953.66;4884990;29;20486;-77
2021/01/09 07:23:13;;;;;;;13.30;7.07;;;;;;;5.04;86.18;98956.31;4884318;29;20036;-76
2021/01/09 07:25:40;;;;;;;14.15;7.55;;;;;;;5.03;85.70;98967.94;4881557;29;20036;-76
2021/01/09 07:28:18;;;;;;;15.77;8.43;;;;;;;5.03;85.64;98982.03;4897053;29;20048;-78
2021/01/09 07:30:44;;;;;;;23.13;11.65;;;;;;;5.01;86.02;98970.84;4901104;29;20085;-77
2021/01/09 07:33:12;;;;;;;19.73;10.30;;;;;;;5.03;85.78;98971.44;4900417;29;20128;-77
2021/01/09 07:35:41;;;;;;;17.55;8.45;;;;;;;5.01;85.00;98970.84;4897337;29;20028;-76
2021/01/09 07:38:08;;;;;;;9.35;4.18;;;;;;;4.96;85.33;98986.69;4883161;29;20036;-76
2021/01/09 07:40:45;;;;;;;10.93;4.70;;;;;;;4.93;85.06;98987.16;4881995;29;20029;-78
2021/01/09 07:43:36;;;;;;;5.22;3.47;;;;;;;4.96;85.42;99006.03;4901822;29;20065;-76
2021/01/09 07:46:20;;;;;;;2.58;1.92;;;;;;;4.93;85.48;98992.44;4904490;29;20029;-77
2021/01/09 07:48:47;;;;;;;4.25;1.20;;;;;;;4.95;85.23;99009.72;4901031;29;20100;-75
2021/01/09 07:51:12;;;;;;;4.72;1.90;;;;;;;4.97;85.63;99007.63;4903278;29;20115;-75
2021/01/09 07:53:44;;;;;;;2.63;1.55;;;;;;;4.96;85.68;99021.91;4898864;29;20115;-77
2021/01/09 07:56:10;;;;;;;2.70;1.33;;;;;;;4.94;85.40;99016.06;4896926;29;20064;-74
2021/01/09 07:58:43;;;;;;;2.97;1.58;;;;;;;4.97;85.75;99034.13;4896011;29;20060;-74
2021/01/09 08:01:09;;;;;;;2.42;1.50;;;;;;;4.97;85.49;99036.00;4893301;29;20403;-77
2021/01/09 08:03:35;;;;;;;2.05;1.27;;;;;;;4.93;85.73;99029.53;4878070;29;20036;-77
2021/01/09 08:09:48;;;;;;;1.47;0.97;;;;;;;4.91;85.46;99034.31;5193944;23;20063;-81
2021/01/09 08:12:24;;;;;;;1.90;1.17;;;;;;;4.85;85.55;99043.22;4905364;29;20319;-80
2021/01/09 08:14:50;;;;;;;1.08;0.98;;;;;;;4.82;85.39;99055.06;4889323;29;20060;-78
2021/01/09 08:17:15;;;;;;;0.90;0.60;;;;;;;4.79;85.55;99055.56;4899595;29;20120;-77
2021/01/09 08:19:40;;;;;;;2.47;1.00;;;;;;;4.78;86.17;99046.78;4899396;29;20024;-76
2021/01/09 08:22:06;;;;;;;2.25;1.00;;;;;;;4.79;85.93;99050.25;4916876;29;20106;-76
2021/01/09 08:24:31;;;;;;;1.42;0.75;;;;;;;4.77;85.97;99047.03;4899368;29;20564;-75
2021/01/09 08:26:57;;;;;;;3.65;2.10;;;;;;;4.77;86.66;99047.03;4892480;29;20035;-76
2021/01/09 08:29:23;;;;;;;1.95;1.08;;;;;;;4.80;86.81;99035.97;4881034;29;20071;-78
2021/01/09 08:31:50;;;;;;;1.20;0.68;;;;;;;4.80;86.82;99042.06;4884772;29;20028;-77
2021/01/09 08:34:19;;;;;;;0.50;0.50;;;;;;;4.83;86.94;99050.59;4899511;29;20382;-77
2021/01/09 08:36:48;;;;;;;1.67;1.20;;;;;;;4.85;87.42;99053.81;4898134;29;20092;-76
2021/01/09 08:39:13;;;;;;;1.77;1.15;;;;;;;4.86;86.64;99061.50;4898065;29;20063;-76
2021/01/09 08:41:39;;;;;;;3.17;1.77;;;;;;;4.90;87.17;99048.59;4914832;29;20617;-76
2021/01/09 08:44:07;;;;;;;2.50;1.90;;;;;;;4.82;87.04;99036.50;4898153;29;20025;-76
2021/01/09 08:46:34;;;;;;;3.33;2.60;;;;;;;4.93;87.42;99051.56;4914417;29;20055;-76
2021/01/09 08:48:59;;;;;;;4.38;2.05;;;;;;;4.99;87.34;99056.94;4897095;29;20031;-75
2021/01/09 08:51:28;;;;;;;2.78;1.88;;;;;;;4.97;87.00;99042.09;4897346;29;20024;-75
2021/01/09 08:54:03;;;;;;;3.42;2.38;;;;;;;4.99;86.97;99062.25;4885017;29;20024;-76
2021/01/09 08:56:30;;;;;;;3.58;2.67;;;;;;;5.01;86.96;99065.47;4879980;29;20124;-77
2021/01/09 08:59:09;;;;;;;2.20;2.00;;;;;;;4.99;86.75;99064.91;4895328;29;20024;-78
2021/01/09 09:01:47;;;;;;;2.90;2.67;;;;;;;5.00;87.05;99061.22;4880061;29;20096;-79
2021/01/09 09:04:13;;;;;;;;;;;;;;;5.00;87.17;99063.88;4890303;29;20042;-78
2021/01/09 09:06:42;;;;;;;2.67;2.20;;;;;;;5.02;87.38;99067.09;4897938;29;19933;-77
2021/01/09 09:09:09;;;;;;;4.47;3.30;;;;;;;5.03;87.61;99066.84;4887731;29;20064;-78
2021/01/09 09:11:35;;;;;;;3.47;3.17;;;;;;;5.08;87.83;99076.75;4894367;29;20044;-79
2021/01/09 09:14:10;;;;;;;4.28;3.20;;;;;;;5.11;87.11;99079.72;4898909;29;20039;-78
2021/01/09 09:16:37;;;;;;;2.33;2.10;;;;;;;5.16;87.01;99083.50;4898685;29;20056;-76
2021/01/09 09:19:19;;;;;;;2.35;1.95;;;;;;;5.13;86.40;99084.78;4898732;29;20035;-76
2021/01/09 09:22:05;;;;;;;4.25;2.42;;;;;;;5.18;87.13;99081.41;4898733;29;20046;-76
2021/01/09 09:24:57;;;;;;;3.22;1.85;;;;;;;5.19;86.50;99090.94;4887794;29;20044;-77
2021/01/09 09:27:32;;;;;;;2.75;1.52;;;;;;;5.18;85.83;99098.09;4892448;29;20432;-78
2021/01/09 09:30:08;;;;;;;2.55;1.63;;;;;;;5.16;85.89;99104.69;4880909;29;20033;-78
2021/01/09 09:32:34;;;;;;;7.32;4.35;;;;;;;5.13;85.81;99087.41;4898513;29;20033;-77
2021/01/09 09:35:21;;;;;;;8.48;3.53;;;;;;;5.09;85.49;99091.56;4899405;29;20036;-76
2021/01/09 09:37:47;;;;;;;5.05;2.83;;;;;;;5.09;85.49;99076.50;4884838;29;20036;-78
2021/01/09 09:40:29;;;;;;;4.68;2.50;;;;;;;5.09;85.65;99075.66;4900020;29;20036;-77
2021/01/09 09:43:09;;;;;;;4.28;2.92;;;;;;;5.07;85.76;99081.22;4898290;29;20048;-77
2021/01/09 09:45:34;;;;;;;5.75;3.17;;;;;;;5.09;85.95;99078.31;4914636;29;20032;-76
2021/01/09 09:48:00;;;;;;;4.70;3.60;;;;;;;5.15;85.47;99084.53;4899006;29;20092;-78
2021/01/09 09:50:25;;;;;;;4.80;3.03;;;;;;;5.16;85.30;99078.97;4909050;29;20036;-77
2021/01/09 09:53:05;;;;;;;10.43;4.97;;;;;;;5.19;85.71;99083.00;4915967;29;20059;-77
2021/01/09 09:55:30;;;;;;;5.68;3.70;;;;;;;5.21;84.84;99080.91;4897946;29;20032;-76
2021/01/09 09:58:09;;;;;;;7.68;3.80;;;;;;;5.20;84.75;99076.66;4915003;29;20039;-77
2021/01/09 10:00:45;;;;;;;4.82;2.65;;;;;;;5.24;84.62;99080.44;4897454;29;20032;-77
2021/01/09 10:03:11;;;;;;;3.33;2.38;;;;;;;5.20;85.05;99066.03;4898595;29;20040;-77
2021/01/09 10:05:38;;;;;;;3.92;2.40;;;;;;;5.21;85.00;99072.97;4909514;29;20043;-76
2021/01/09 10:08:15;;;;;;;6.63;2.90;;;;;;;5.22;85.11;99079.88;4893830;29;20102;-76
2021/01/09 10:10:42;;;;;;;2.22;2.03;;;;;;;5.17;84.60;99077.16;4898230;29;20488;-76
2021/01/09 10:13:08;;;;;;;3.05;2.47;;;;;;;5.16;84.96;99071.03;4898058;29;20036;-75
2021/01/09 10:15:33;;;;;;;7.57;3.58;;;;;;;5.15;84.58;99080.03;4898009;29;20050;-75
2021/01/09 10:18:00;;;;;;;6.72;3.80;;;;;;;5.13;84.81;99079.47;4915518;29;20067;-76
2021/01/09 10:20:26;;;;;;;6.20;4.15;;;;;;;5.10;84.38;99078.09;4898027;29;20401;-76
2021/01/09 10:22:52;;;;;;;6.47;4.15;;;;;;;5.11;84.88;99073.59;4901398;29;20036;-77
2021/01/09 10:25:18;;;;;;;8.23;3.90;;;;;;;5.08;84.81;99069.56;4903217;29;20044;-77
2021/01/09 10:27:43;;;;;;;4.22;2.97;;;;;;;5.05;84.16;99074.56;4888213;29;20032;-76
2021/01/09 10:30:09;;;;;;;5.25;2.97;;;;;;;5.03;84.25;99073.97;4888139;29;20036;-77
2021/01/09 10:32:35;;;;;;;8.07;4.47;;;;;;;5.04;84.58;99080.88;4893188;29;20033;-77
2021/01/09 10:35:00;;;;;;;8.20;4.35;;;;;;;5.02;84.59;99083.78;4905606;29;20032;-77
2021/01/09 10:37:26;;;;;;;4.93;3.25;;;;;;;4.97;83.99;99081.84;4903089;29;20036;-77
2021/01/09 10:39:52;;;;;;;16.77;6.57;;;;;;;4.95;84.30;99075.97;4902974;29;20082;-76
2021/01/09 10:42:19;;;;;;;12.20;4.68;;;;;;;5.01;84.64;99076.09;4888377;29;20042;-76
2021/01/09 10:44:44;;;;;;;1.63;1.52;;;;;;;5.00;83.01;99085.88;4899250;29;20040;-77
2021/01/09 10:47:10;;;;;;;2.63;2.10;;;;;;;4.97;83.16;99075.75;4904649;29;20068;-77
2021/01/09 10:49:35;;;;;;;5.13;2.20;;;;;;;4.95;83.66;99081.25;4904687;29;20032;-77
2021/01/09 10:52:01;;;;;;;6.28;2.17;;;;;;;4.95;83.89;99081.25;4921543;29;20043;-77
2021/01/09 10:54:26;;;;;;;2.80;1.80;;;;;;;4.95;83.92;99093.72;4908022;29;20028;-77
2021/01/09 10:56:52;;;;;;;5.80;2.40;;;;;;;4.94;83.84;99086.81;4903066;29;20040;-76
2021/01/09 10:59:17;;;;;;;2.60;1.80;;;;;;;4.93;83.69;99077.25;4901558;29;20028;-73
2021/01/09 11:01:43;;;;;;;4.00;1.98;;;;;;;4.95;84.27;99078.63;4918475;29;20051;-74
2021/01/09 11:04:09;;;;;;;2.65;2.20;;;;;;;4.96;84.36;99077.59;4916528;29;20477;-74
2021/01/09 11:06:35;;;;;;;2.60;2.03;;;;;;;4.96;84.22;99074.13;4911992;29;20436;-76
2021/01/09 11:09:00;;;;;;;3.67;2.47;;;;;;;4.95;84.59;99069.88;4916213;29;20112;-76
2021/01/09 11:11:26;;;;;;;3.33;2.30;;;;;;;4.97;84.32;99079.19;4910739;29;20437;-77
2021/01/09 11:13:52;;;;;;;2.80;1.63;;;;;;;4.94;84.19;99071.72;4900645;29;20036;-76
2021/01/09 11:16:19;;;;;;;3.70;2.55;;;;;;;4.94;84.52;99071.72;4896080;29;20096;-77
2021/01/09 11:18:45;;;;;;;2.67;2.20;;;;;;;4.97;84.73;99086.34;4916377;29;20032;-78
2021/01/09 11:21:10;;;;;;;3.28;2.42;;;;;;;4.97;84.76;99084.50;4894471;29;20047;-77
2021/01/09 11:23:37;;;;;;;3.13;2.60;;;;;;;5.01;84.85;99089.34;4919389;29;20120;-80
2021/01/09 11:26:13;;;;;;;11.00;4.80;;;;;;;5.03;85.03;99089.88;4925906;29;20024;-82
2021/01/09 11:28:39;;;;;;;4.63;2.83;;;;;;;5.06;85.07;99081.47;4905989;29;20059;-79
2021/01/09 11:31:10;;;;;;;1.85;1.35;;;;;;;5.08;85.38;99087.34;4905586;29;20035;-80
2021/01/09 11:33:36;;;;;;;2.47;2.03;;;;;;;5.07;84.97;99091.81;4903382;29;20394;-79
2021/01/09 11:36:01;;;;;;;2.45;2.25;;;;;;;5.09;84.65;99096.88;4899950;29;20068;-79
2021/01/09 11:38:27;;;;;;;1.63;1.52;;;;;;;5.08;84.82;99097.94;4907202;29;20031;-79
2021/01/09 11:41:12;;;;;;;2.63;1.88;;;;;;;5.11;84.54;99111.53;4896135;29;20036;-81
2021/01/09 11:43:41;;;;;;;1.83;1.58;;;;;;;5.11;84.69;99110.69;4905964;29;20474;-78
2021/01/09 11:46:07;;;;;;;1.98;1.88;;;;;;;5.12;84.33;99112.31;4904798;29;20508;-77